Time;durP1;ratioP1;P1;durP2;ratioP2;P2;SDS_P1;SDS_P2;PMS_P1;PMS_P2;Temp;Humidity;BMP_temperature;BMP_pressure;BME280_temperature;BME280_humidity;BME280_pressure;Samples;Min_cycle;Max_cycle;Signal;HPM_P1;HPM_P2
2022/03/26 00:00:48;;;;;;;39.67;26.33;;;6.60;99.90;;;;;;4967558;28;20212;-79
2022/03/26 00:03:16;;;;;;;39.33;25.50;;;6.50;99.90;;;;;;4966014;28;20211;-81
2022/03/26 00:05:44;;;;;;;39.50;25.60;;;6.50;99.90;;;;;;4966444;28;20223;-82
2022/03/26 00:08:11;;;;;;;41.87;27.60;;;6.50;99.90;;;;;;4966605;28;20205;-79
2022/03/26 00:10:38;;;;;;;36.83;25.70;;;6.40;99.90;;;;;;4966916;28;20235;-79
2022/03/26 00:13:05;;;;;;;46.03;29.53;;;6.40;99.90;;;;;;4966873;28;20223;-79
2022/03/26 00:15:34;;;;;;;46.87;30.40;;;6.30;99.90;;;;;;4966370;28;20592;-81
2022/03/26 00:18:01;;;;;;;48.93;30.60;;;6.30;99.90;;;;;;4965726;28;20208;-79
2022/03/26 00:20:28;;;;;;;43.20;28.30;;;6.20;99.90;;;;;;4966620;28;20211;-77
2022/03/26 00:22:55;;;;;;;47.57;29.80;;;6.20;99.90;;;;;;4966944;28;20208;-79
2022/03/26 00:25:22;;;;;;;39.77;27.20;;;6.10;99.90;;;;;;4966757;28;20212;-85
2022/03/26 00:27:50;;;;;;;46.40;27.43;;;6.10;99.90;;;;;;4967864;28;20201;-79
2022/03/26 00:30:17;;;;;;;41.67;27.13;;;6.10;99.90;;;;;;4967236;28;20267;-81
2022/03/26 00:32:45;;;;;;;40.30;27.27;;;6.00;99.90;;;;;;4966856;28;20208;-78
2022/03/26 00:35:12;;;;;;;40.37;25.97;;;6.00;99.90;;;;;;4968127;28;20208;-82
2022/03/26 00:37:40;;;;;;;40.07;26.40;;;6.00;99.90;;;;;;4967603;28;20211;-84
2022/03/26 00:40:09;;;;;;;42.50;28.17;;;6.00;99.90;;;;;;4966238;28;20200;-80
2022/03/26 00:42:36;;;;;;;44.77;28.23;;;6.00;99.90;;;;;;4966821;28;20211;-81
2022/03/26 00:45:03;;;;;;;44.23;28.43;;;5.90;99.90;;;;;;4975943;28;20746;-79
2022/03/26 00:47:29;;;;;;;43.60;26.37;;;5.90;99.90;;;;;;4988359;28;20200;-85
2022/03/26 00:49:57;;;;;;;42.90;28.00;;;5.90;99.90;;;;;;4977265;28;20240;-78
2022/03/26 00:52:24;;;;;;;43.70;28.50;;;5.90;99.90;;;;;;4967721;28;20224;-84
2022/03/26 00:54:51;;;;;;;45.07;27.63;;;5.80;99.90;;;;;;4970621;28;20612;-79
2022/03/26 00:57:18;;;;;;;42.00;27.80;;;5.80;99.90;;;;;;4968287;28;20593;-78
2022/03/26 00:59:45;;;;;;;46.27;31.07;;;5.80;99.90;;;;;;4968476;28;20853;-78
2022/03/26 01:02:12;;;;;;;42.60;27.60;;;5.80;99.90;;;;;;4968474;28;21002;-79
2022/03/26 01:04:39;;;;;;;44.37;26.87;;;5.80;99.90;;;;;;4968268;28;20884;-77
2022/03/26 01:07:07;;;;;;;47.57;28.20;;;5.80;99.90;;;;;;4968786;28;20216;-81
2022/03/26 01:09:35;;;;;;;42.90;28.03;;;5.80;99.90;;;;;;4969528;28;20216;-78
2022/03/26 01:12:01;;;;;;;45.77;27.27;;;5.80;99.90;;;;;;4969287;28;20224;-80
2022/03/26 01:14:28;;;;;;;45.10;28.13;;;5.70;99.90;;;;;;4967698;28;20648;-82
2022/03/26 01:16:55;;;;;;;45.97;30.63;;;5.70;99.90;;;;;;4970439;28;20223;-79
2022/03/26 01:19:22;;;;;;;49.37;30.33;;;5.70;99.90;;;;;;4968920;28;20208;-80
2022/03/26 01:21:49;;;;;;;45.77;29.63;;;5.70;99.90;;;;;;4970434;28;20208;-83
2022/03/26 01:24:17;;;;;;;48.40;29.63;;;5.60;99.90;;;;;;4969823;28;20531;-82
2022/03/26 01:26:45;;;;;;;48.90;29.27;;;5.60;99.90;;;;;;4968871;28;20244;-82
2022/03/26 01:29:12;;;;;;;45.23;29.40;;;5.60;99.90;;;;;;4968455;28;20863;-80
2022/03/26 01:31:39;;;;;;;47.57;30.03;;;5.60;99.90;;;;;;4968385;28;20251;-80
2022/03/26 01:34:06;;;;;;;51.57;30.73;;;5.50;99.90;;;;;;4969642;28;20598;-79
2022/03/26 01:36:33;;;;;;;44.90;29.20;;;5.50;99.90;;;;;;4970702;28;20204;-83
2022/03/26 01:38:59;;;;;;;46.87;28.60;;;5.50;99.90;;;;;;4971122;28;20211;-79
2022/03/26 01:41:28;;;;;;;47.97;30.17;;;5.40;99.90;;;;;;4969847;28;20208;-80
2022/03/26 01:43:54;;;;;;;57.30;33.47;;;5.40;99.90;;;;;;4969014;28;20200;-81
2022/03/26 01:46:21;;;;;;;50.87;29.43;;;5.40;99.90;;;;;;4967984;28;20212;-80
2022/03/26 01:48:48;;;;;;;47.90;29.83;;;5.30;99.90;;;;;;4979995;28;20201;-80
2022/03/26 01:51:15;;;;;;;47.13;28.63;;;5.30;99.90;;;;;;4968616;28;20421;-81
2022/03/26 01:53:44;;;;;;;43.77;29.97;;;5.30;99.90;;;;;;4969345;28;20212;-79
2022/03/26 01:56:12;;;;;;;49.73;31.03;;;5.30;99.90;;;;;;4968878;28;20208;-80
2022/03/26 01:58:40;;;;;;;41.73;26.87;;;5.20;99.90;;;;;;4970395;28;20232;-81
2022/03/26 02:01:07;;;;;;;41.83;25.67;;;5.20;99.90;;;;;;4970315;28;20216;-80
2022/03/26 02:03:35;;;;;;;45.80;28.07;;;5.20;99.90;;;;;;4968625;28;20254;-86
2022/03/26 02:06:02;;;;;;;47.27;28.43;;;5.10;99.90;;;;;;4969338;28;20308;-85
2022/03/26 02:08:29;;;;;;;45.87;29.07;;;5.10;99.90;;;;;;4969545;28;20216;-83
2022/03/26 02:10:57;;;;;;;43.93;28.10;;;5.10;99.90;;;;;;4970029;28;20205;-83
2022/03/26 02:13:23;;;;;;;46.93;28.23;;;5.10;99.90;;;;;;4969757;28;20236;-84
2022/03/26 02:15:51;;;;;;;46.47;27.17;;;5.00;99.90;;;;;;4969207;28;20219;-82
2022/03/26 02:18:18;;;;;;;44.87;27.33;;;5.00;99.90;;;;;;4968227;28;20212;-82
2022/03/26 02:20:47;;;;;;;40.57;26.53;;;5.00;99.90;;;;;;4967390;28;20513;-79
2022/03/26 02:23:14;;;;;;;46.70;28.67;;;5.00;99.90;;;;;;4965459;28;20204;-78
2022/03/26 02:25:41;;;;;;;48.10;30.50;;;5.00;99.90;;;;;;4966969;28;20581;-77
2022/03/26 02:28:09;;;;;;;45.30;29.20;;;5.00;99.90;;;;;;4966863;28;20210;-76
2022/03/26 02:30:36;;;;;;;43.47;27.17;;;4.90;99.90;;;;;;4986294;28;20208;-79
2022/03/26 02:33:03;;;;;;;45.87;27.60;;;4.90;99.90;;;;;;4987320;28;20510;-79
2022/03/26 02:35:30;;;;;;;44.87;27.90;;;4.90;99.90;;;;;;4987211;28;20208;-78
2022/03/26 02:37:58;;;;;;;47.83;29.00;;;4.90;99.90;;;;;;4971416;28;20958;-85
2022/03/26 02:40:25;;;;;;;44.53;27.30;;;4.90;99.90;;;;;;4968325;28;20201;-80
2022/03/26 02:42:52;;;;;;;50.93;29.90;;;4.80;99.90;;;;;;4968812;28;20203;-81
2022/03/26 02:45:19;;;;;;;47.80;29.47;;;4.80;99.90;;;;;;4972135;28;20230;-85
2022/03/26 02:47:48;;;;;;;54.43;34.10;;;4.90;99.90;;;;;;4988162;28;20192;-83
2022/03/26 02:50:15;;;;;;;46.90;29.20;;;4.80;99.90;;;;;;4988244;28;20358;-83
2022/03/26 02:52:41;;;;;;;53.50;33.17;;;4.80;99.90;;;;;;4982742;28;20251;-78
2022/03/26 02:55:10;;;;;;;52.33;31.37;;;4.80;99.90;;;;;;4968500;28;20337;-81
2022/03/26 02:57:37;;;;;;;49.67;29.67;;;4.80;99.90;;;;;;4968358;28;20240;-83
2022/03/26 03:00:07;;;;;;;50.87;29.33;;;4.80;99.90;;;;;;4967764;28;20201;-80
2022/03/26 03:02:35;;;;;;;53.90;32.77;;;4.80;99.90;;;;;;4986305;28;20208;-79
2022/03/26 03:05:01;;;;;;;44.70;28.00;;;4.70;99.90;;;;;;4981375;28;20896;-79
2022/03/26 03:07:30;;;;;;;49.67;31.13;;;4.70;99.90;;;;;;4966714;28;20207;-79
2022/03/26 03:09:57;;;;;;;54.93;32.60;;;4.70;99.90;;;;;;4967574;28;20204;-80
2022/03/26 03:12:26;;;;;;;57.40;32.73;;;4.70;99.90;;;;;;4966695;28;20223;-79
2022/03/26 03:14:53;;;;;;;51.63;30.97;;;4.70;99.90;;;;;;4969960;28;20260;-84
2022/03/26 03:17:20;;;;;;;52.03;31.90;;;4.60;99.90;;;;;;4969016;28;20204;-84
2022/03/26 03:19:47;;;;;;;50.07;31.20;;;4.60;99.90;;;;;;4966875;28;20222;-79
2022/03/26 03:22:14;;;;;;;54.07;32.53;;;4.60;99.90;;;;;;4967589;28;20201;-81
2022/03/26 03:24:41;;;;;;;54.13;32.70;;;4.60;99.90;;;;;;4984351;28;20239;-81
2022/03/26 03:27:07;;;;;;;62.50;34.57;;;4.60;99.90;;;;;;4982768;28;20219;-80
2022/03/26 03:29:36;;;;;;;52.90;31.10;;;4.50;99.90;;;;;;4966711;28;20234;-80
2022/03/26 03:32:02;;;;;;;55.73;32.77;;;4.60;99.90;;;;;;4965337;28;20548;-78
2022/03/26 03:34:29;;;;;;;56.03;31.90;;;4.50;99.90;;;;;;4964741;28;20216;-81
2022/03/26 03:36:56;;;;;;;57.73;32.47;;;4.50;99.90;;;;;;4965890;28;20205;-78
2022/03/26 03:39:23;;;;;;;53.67;31.23;;;4.50;99.90;;;;;;4966268;28;20204;-80
2022/03/26 03:41:50;;;;;;;57.07;31.73;;;4.50;99.90;;;;;;4966299;28;20299;-81
2022/03/26 03:44:17;;;;;;;49.23;30.07;;;4.50;99.90;;;;;;4966608;28;20204;-78
2022/03/26 03:46:45;;;;;;;47.57;29.33;;;4.50;99.90;;;;;;4965905;28;20212;-78
2022/03/26 03:49:12;;;;;;;57.67;32.27;;;4.50;99.90;;;;;;4985864;28;20219;-84
2022/03/26 03:51:39;;;;;;;49.17;29.37;;;4.50;99.90;;;;;;4986727;28;20232;-82
2022/03/26 03:54:06;;;;;;;52.03;30.97;;;4.40;99.90;;;;;;4991101;28;20192;-79
2022/03/26 03:56:33;;;;;;;54.13;29.67;;;4.40;99.90;;;;;;4991561;28;20223;-79
2022/03/26 03:58:59;;;;;;;52.57;30.90;;;4.40;99.90;;;;;;4988786;28;20541;-79
2022/03/26 04:01:26;;;;;;;46.10;28.90;;;4.40;99.90;;;;;;4973426;28;20242;-78
2022/03/26 04:03:54;;;;;;;58.90;34.43;;;4.30;99.90;;;;;;4971548;28;20653;-76
2022/03/26 04:06:21;;;;;;;54.87;30.47;;;4.30;99.90;;;;;;4971144;28;20235;-79
2022/03/26 04:08:48;;;;;;;55.00;31.97;;;4.30;99.90;;;;;;4970912;28;20223;-83
2022/03/26 04:11:15;;;;;;;49.70;29.23;;;4.30;99.90;;;;;;4967954;28;20220;-78
2022/03/26 04:13:41;;;;;;;59.73;33.80;;;4.30;99.90;;;;;;4966492;28;20239;-80
2022/03/26 04:16:08;;;;;;;57.90;32.57;;;4.20;99.90;;;;;;4968625;28;20211;-78
2022/03/26 04:18:35;;;;;;;58.00;32.53;;;4.20;99.90;;;;;;4966152;28;20676;-77
2022/03/26 04:21:03;;;;;;;60.73;33.20;;;4.20;99.90;;;;;;4966788;28;20219;-79
2022/03/26 04:23:30;;;;;;;63.07;35.53;;;4.20;99.90;;;;;;4963973;28;20211;-80
2022/03/26 04:25:57;;;;;;;66.10;36.17;;;4.20;99.90;;;;;;4964811;28;20204;-80
2022/03/26 04:28:24;;;;;;;66.63;36.73;;;4.20;99.90;;;;;;4965166;28;20217;-78
2022/03/26 04:30:50;;;;;;;65.83;37.37;;;4.20;99.90;;;;;;4965169;28;20227;-79
2022/03/26 04:33:17;;;;;;;67.57;38.20;;;4.10;99.90;;;;;;4966652;28;20231;-81
2022/03/26 04:35:44;;;;;;;62.27;35.97;;;4.10;99.90;;;;;;4967102;28;20312;-80
2022/03/26 04:38:12;;;;;;;63.03;36.60;;;4.10;99.90;;;;;;4966608;28;20299;-81
2022/03/26 04:40:39;;;;;;;62.27;36.07;;;4.10;99.90;;;;;;4967309;28;20236;-78
2022/03/26 04:43:06;;;;;;;59.93;34.87;;;4.10;99.90;;;;;;4967269;28;20204;-81
2022/03/26 04:45:33;;;;;;;64.70;35.53;;;4.10;99.90;;;;;;4969569;28;20684;-79
2022/03/26 04:48:00;;;;;;;61.20;34.77;;;4.10;99.90;;;;;;4978905;28;20203;-79
2022/03/26 04:50:27;;;;;;;67.30;37.40;;;4.00;99.90;;;;;;4978872;28;20236;-82
2022/03/26 04:52:54;;;;;;;58.90;34.37;;;4.10;99.90;;;;;;4969596;28;20235;-83
2022/03/26 04:55:22;;;;;;;64.30;35.13;;;4.10;99.90;;;;;;4970235;28;20197;-82
2022/03/26 04:57:50;;;;;;;58.03;34.77;;;4.00;99.90;;;;;;4969888;28;20231;-81
2022/03/26 05:00:19;;;;;;;61.53;34.30;;;4.00;99.90;;;;;;4966043;28;20209;-79
2022/03/26 05:02:46;;;;;;;51.57;30.97;;;4.00;99.90;;;;;;4966497;28;20208;-79
2022/03/26 05:05:14;;;;;;;59.60;34.70;;;4.00;99.90;;;;;;4984558;28;20231;-77
2022/03/26 05:07:47;;;;;;;67.93;37.87;;;4.00;99.90;;;;;;4974263;28;20295;-79
2022/03/26 05:10:14;;;;;;;63.87;36.47;;;4.00;99.90;;;;;;4970830;28;20212;-83
2022/03/26 05:12:43;;;;;;;61.60;34.77;;;3.90;99.90;;;;;;4971428;28;20224;-86
2022/03/26 05:15:10;;;;;;;63.87;34.93;;;3.90;99.90;;;;;;4969645;28;20228;-82
2022/03/26 05:17:38;;;;;;;65.13;35.97;;;3.90;99.90;;;;;;4968876;28;20201;-83
2022/03/26 05:20:05;;;;;;;77.13;39.10;;;3.90;99.90;;;;;;4967206;28;20216;-76
2022/03/26 05:22:32;;;;;;;66.17;37.23;;;3.90;99.90;;;;;;4965023;28;20204;-85
2022/03/26 05:25:00;;;;;;;71.60;39.07;;;3.90;99.90;;;;;;4964477;28;20412;-77
2022/03/26 05:27:27;;;;;;;67.43;37.33;;;3.90;99.90;;;;;;4963088;28;20236;-76
2022/03/26 05:29:55;;;;;;;65.50;37.00;;;3.90;99.90;;;;;;4965635;28;20215;-76
2022/03/26 05:32:22;;;;;;;71.47;38.03;;;3.90;99.90;;;;;;4968198;28;20224;-79
2022/03/26 05:34:50;;;;;;;72.33;37.73;;;3.90;99.90;;;;;;4975477;28;20212;-77
2022/03/26 05:37:17;;;;;;;70.83;39.30;;;3.80;99.90;;;;;;4987281;28;20200;-78
2022/03/26 05:39:44;;;;;;;70.47;39.00;;;3.90;99.90;;;;;;4987076;28;21016;-79
2022/03/26 05:42:11;;;;;;;76.50;41.13;;;3.80;99.90;;;;;;4982817;28;20215;-80
2022/03/26 05:44:38;;;;;;;68.67;38.40;;;3.80;99.90;;;;;;4973617;28;20197;-77
2022/03/26 05:47:07;;;;;;;67.83;39.53;;;3.90;99.90;;;;;;4971007;28;20211;-77
2022/03/26 05:49:34;;;;;;;71.93;39.13;;;3.90;99.90;;;;;;4983909;28;20247;-79
2022/03/26 05:52:01;;;;;;;79.30;40.77;;;3.90;99.90;;;;;;4967879;28;20216;-81
2022/03/26 05:54:28;;;;;;;78.00;42.37;;;3.90;99.90;;;;;;4968085;28;20223;-79
2022/03/26 05:56:55;;;;;;;83.43;44.57;;;3.90;99.90;;;;;;4969441;28;20223;-81
2022/03/26 05:59:23;;;;;;;90.97;46.27;;;3.90;99.90;;;;;;4969429;28;20228;-80
2022/03/26 06:01:51;;;;;;;80.93;44.53;;;3.90;99.90;;;;;;4971296;28;20212;-80
2022/03/26 06:04:20;;;;;;;81.53;42.87;;;3.90;99.90;;;;;;4969793;28;20208;-81
2022/03/26 06:06:48;;;;;;;76.07;41.70;;;4.00;99.90;;;;;;4968888;28;20228;-79
2022/03/26 06:09:14;;;;;;;87.10;44.47;;;4.00;99.90;;;;;;4969309;28;20201;-86
2022/03/26 06:11:41;;;;;;;79.90;44.83;;;4.00;99.90;;;;;;4972059;28;20204;-84
2022/03/26 06:14:08;;;;;;;80.17;44.83;;;4.00;99.90;;;;;;4971323;28;20553;-83
2022/03/26 06:16:35;;;;;;;91.60;47.57;;;4.10;99.90;;;;;;4983395;28;20212;-83
2022/03/26 06:19:02;;;;;;;85.47;45.83;;;4.10;99.90;;;;;;4970389;28;20523;-83
2022/03/26 06:21:30;;;;;;;90.10;46.37;;;4.10;99.90;;;;;;4982185;28;20204;-86
2022/03/26 06:23:58;;;;;;;84.03;43.33;;;4.10;99.90;;;;;;4989789;28;20200;-77
2022/03/26 06:26:25;;;;;;;80.97;45.17;;;4.20;99.90;;;;;;4987353;28;20215;-79
2022/03/26 06:28:52;;;;;;;88.23;47.50;;;4.20;99.90;;;;;;4983524;28;20746;-82
2022/03/26 06:31:19;;;;;;;96.03;47.83;;;4.20;99.90;;;;;;4969961;28;20200;-82
2022/03/26 06:33:46;;;;;;;92.20;49.27;;;4.30;99.90;;;;;;4971425;28;20223;-83
2022/03/26 06:36:13;;;;;;;99.47;53.60;;;4.30;99.90;;;;;;4971069;28;20540;-88
2022/03/26 06:38:44;;;;;;;96.33;49.97;;;4.40;99.90;;;;;;4971370;28;20303;-88
2022/03/26 06:41:11;;;;;;;99.90;52.10;;;4.40;99.90;;;;;;4970939;28;20255;-85
2022/03/26 06:43:38;;;;;;;99.77;52.87;;;4.50;99.90;;;;;;4971427;28;20211;-88
2022/03/26 06:46:05;;;;;;;103.97;55.23;;;4.60;99.90;;;;;;4971670;28;20212;-82
2022/03/26 06:48:33;;;;;;;107.70;55.77;;;4.60;99.90;;;;;;4970423;28;20200;-83
2022/03/26 06:51:00;;;;;;;126.87;61.43;;;4.70;99.90;;;;;;4982460;28;20719;-84
2022/03/26 06:53:27;;;;;;;124.07;63.33;;;4.80;99.90;;;;;;4977168;28;20899;-85
2022/03/26 06:55:56;;;;;;;115.30;60.43;;;4.80;99.90;;;;;;4988290;28;20219;-77
2022/03/26 06:58:23;;;;;;;121.70;61.27;;;4.90;99.90;;;;;;4979605;28;20228;-78
2022/03/26 07:00:49;;;;;;;132.50;67.80;;;5.00;99.90;;;;;;4984699;28;20221;-78
2022/03/26 07:03:16;;;;;;;138.93;67.07;;;5.10;99.90;;;;;;4986320;28;20204;-78
2022/03/26 07:05:43;;;;;;;139.57;68.27;;;5.40;99.90;;;;;;4981347;28;20211;-80
2022/03/26 07:08:10;;;;;;;138.90;65.27;;;5.50;99.90;;;;;;4987946;28;20223;-83
2022/03/26 07:10:37;;;;;;;136.13;69.63;;;5.60;99.90;;;;;;4980908;28;20215;-86
2022/03/26 07:13:06;;;;;;;138.70;67.93;;;5.70;99.90;;;;;;4986629;28;20238;-79
2022/03/26 07:15:33;;;;;;;137.30;68.20;;;5.80;99.90;;;;;;4981989;28;20204;-84
2022/03/26 07:17:59;;;;;;;143.07;71.73;;;5.90;99.90;;;;;;4977401;28;20216;-81
2022/03/26 07:20:26;;;;;;;143.17;70.67;;;6.10;99.90;;;;;;4983689;28;20211;-80
2022/03/26 07:22:53;;;;;;;151.63;75.67;;;6.20;99.90;;;;;;5000238;28;20218;-82
2022/03/26 07:25:20;;;;;;;163.03;79.20;;;6.30;99.90;;;;;;4981099;28;20968;-86
2022/03/26 07:27:47;;;;;;;152.53;76.97;;;6.40;99.90;;;;;;4980486;28;20216;-79
2022/03/26 07:30:15;;;;;;;153.53;75.83;;;6.50;99.90;;;;;;4971485;28;20208;-81
2022/03/26 07:32:42;;;;;;;147.27;73.07;;;6.60;99.90;;;;;;4976524;28;20212;-82
2022/03/26 07:35:10;;;;;;;150.80;72.50;;;6.80;99.90;;;;;;4973728;28;20270;-81
2022/03/26 07:37:36;;;;;;;138.37;69.80;;;6.90;99.90;;;;;;4985336;28;20212;-86
2022/03/26 07:40:04;;;;;;;141.43;71.23;;;7.10;99.90;;;;;;4986724;28;21001;-82
2022/03/26 07:42:32;;;;;;;136.70;68.03;;;7.30;99.90;;;;;;4989231;28;20214;-80
2022/03/26 07:44:59;;;;;;;132.47;65.70;;;7.50;99.90;;;;;;4972868;28;20219;-79
2022/03/26 07:47:35;;;;;;;131.33;61.67;;;7.60;99.90;;;;;;4974413;28;20200;-82
2022/03/26 07:50:02;;;;;;;116.00;58.97;;;7.80;99.90;;;;;;4989297;28;20231;-84
2022/03/26 07:52:41;;;;;;;115.13;57.60;;;8.00;99.90;;;;;;4964192;28;20530;-77
2022/03/26 07:55:10;;;;;;;105.80;55.03;;;8.20;99.90;;;;;;4983681;28;20205;-83
2022/03/26 07:57:38;;;;;;;111.43;55.10;;;8.40;99.90;;;;;;4969284;28;20247;-87
2022/03/26 08:00:06;;;;;;;104.70;55.53;;;8.50;99.90;;;;;;4969803;28;20326;-79
2022/03/26 08:02:34;;;;;;;108.43;56.83;;;8.60;99.90;;;;;;4983686;28;20219;-87
2022/03/26 08:05:01;;;;;;;98.73;54.67;;;8.70;99.90;;;;;;4988324;28;20206;-82
2022/03/26 08:07:30;;;;;;;104.83;52.63;;;8.80;99.90;;;;;;4987015;28;20204;-86
2022/03/26 08:09:59;;;;;;;95.20;52.27;;;9.00;99.90;;;;;;4983013;28;20318;-78
2022/03/26 08:12:25;;;;;;;96.30;49.53;;;9.10;99.90;;;;;;4968236;28;20208;-78
2022/03/26 08:14:52;;;;;;;88.70;48.17;;;9.30;99.90;;;;;;4967621;28;20238;-80
2022/03/26 08:17:19;;;;;;;90.63;47.70;;;9.40;99.90;;;;;;4967093;28;20209;-80
2022/03/26 08:19:49;;;;;;;85.43;47.30;;;9.60;99.90;;;;;;4969053;28;20215;-81
2022/03/26 08:22:16;;;;;;;86.87;47.70;;;9.80;99.90;;;;;;4966770;28;20248;-81
2022/03/26 08:24:43;;;;;;;87.67;49.03;;;9.90;99.90;;;;;;4967028;28;20212;-81
2022/03/26 08:27:09;;;;;;;82.40;45.83;;;10.20;99.90;;;;;;4965854;28;20209;-79
2022/03/26 08:29:36;;;;;;;87.77;47.63;;;10.40;99.90;;;;;;4978129;28;20596;-78
2022/03/26 08:32:05;;;;;;;83.00;46.40;;;10.70;99.90;;;;;;4985900;28;20204;-80
2022/03/26 08:34:33;;;;;;;85.70;46.83;;;10.90;99.90;;;;;;4977563;28;20272;-79
2022/03/26 08:37:01;;;;;;;76.23;42.13;;;11.20;99.90;;;;;;4964851;28;20217;-80
2022/03/26 08:39:28;;;;;;;75.53;42.23;;;11.40;99.90;;;;;;4965064;28;20621;-77
2022/03/26 08:41:55;;;;;;;65.33;39.70;;;11.60;99.90;;;;;;4965373;28;20252;-77
2022/03/26 08:44:22;;;;;;;77.47;44.23;;;11.80;99.90;;;;;;4964850;28;20612;-78
2022/03/26 08:46:53;;;;;;;71.03;42.10;;;11.90;99.90;;;;;;4965524;28;20221;-82
2022/03/26 08:49:21;;;;;;;81.00;44.03;;;12.00;99.90;;;;;;4984539;28;20325;-78
2022/03/26 08:51:48;;;;;;;80.77;43.50;;;12.10;99.90;;;;;;4984244;28;20631;-79
2022/03/26 08:54:16;;;;;;;75.83;41.60;;;12.30;99.90;;;;;;4984362;28;20223;-82
2022/03/26 08:56:43;;;;;;;80.20;44.23;;;12.40;99.90;;;;;;4965831;28;20215;-80
2022/03/26 08:59:10;;;;;;;83.10;46.70;;;12.50;99.90;;;;;;4964428;28;20232;-81
2022/03/26 09:01:37;;;;;;;81.57;45.77;;;12.60;99.90;;;;;;4965342;28;20339;-79
2022/03/26 09:04:04;;;;;;;76.00;45.27;;;12.70;99.90;;;;;;4965101;28;20628;-79
2022/03/26 09:06:31;;;;;;;80.70;45.40;;;12.80;99.90;;;;;;4969707;28;20620;-79
2022/03/26 09:08:59;;;;;;;78.53;44.47;;;12.90;99.90;;;;;;4970011;28;20411;-82
2022/03/26 09:11:28;;;;;;;80.13;44.57;;;13.00;99.90;;;;;;4970090;28;20259;-85
2022/03/26 09:13:55;;;;;;;74.33;44.83;;;13.20;99.90;;;;;;4969679;28;20782;-79
2022/03/26 09:16:22;;;;;;;74.40;44.63;;;13.30;99.90;;;;;;4969893;28;20205;-81
2022/03/26 09:18:53;;;;;;;77.87;45.00;;;13.40;99.90;;;;;;4985467;28;20624;-79
2022/03/26 09:21:26;;;;;;;73.63;44.57;;;13.50;99.90;;;;;;4988354;28;20616;-79
2022/03/26 09:23:52;;;;;;;78.80;45.07;;;13.60;99.90;;;;;;4987305;28;20212;-79
2022/03/26 09:26:19;;;;;;;81.97;47.80;;;13.70;99.90;;;;;;4987368;28;20563;-79
2022/03/26 09:28:48;;;;;;;83.93;47.67;;;13.90;99.90;;;;;;4986285;28;20247;-80
2022/03/26 09:31:16;;;;;;;80.67;47.20;;;14.00;99.90;;;;;;4987419;28;20204;-79
2022/03/26 09:33:43;;;;;;;84.77;48.57;;;14.10;99.90;;;;;;4973864;28;20301;-80
2022/03/26 09:36:10;;;;;;;84.57;49.90;;;14.20;99.90;;;;;;4968410;28;20208;-79
2022/03/26 09:38:37;;;;;;;88.13;50.40;;;14.30;99.90;;;;;;4967805;28;20354;-80
2022/03/26 09:41:06;;;;;;;84.07;47.00;;;14.40;99.90;;;;;;4967831;28;20606;-80
2022/03/26 09:43:35;;;;;;;90.80;50.70;;;14.50;99.90;;;;;;4967851;28;20598;-79
2022/03/26 09:46:03;;;;;;;86.93;51.23;;;14.60;99.90;;;;;;4967946;28;20228;-80
2022/03/26 09:48:31;;;;;;;84.77;49.43;;;14.70;99.90;;;;;;4981571;28;20681;-77
2022/03/26 09:50:59;;;;;;;85.50;48.87;;;14.90;99.90;;;;;;4987528;28;20232;-78
2022/03/26 09:53:27;;;;;;;86.90;49.67;;;15.10;99.90;;;;;;4969985;28;20621;-79
2022/03/26 09:55:55;;;;;;;86.20;51.60;;;15.30;99.90;;;;;;4969031;28;20204;-79
2022/03/26 09:58:27;;;;;;;77.57;47.03;;;15.40;99.90;;;;;;4967869;28;20235;-79
2022/03/26 10:00:54;;;;;;;89.50;49.50;;;15.50;99.90;;;;;;4967728;28;20523;-79
2022/03/26 10:03:22;;;;;;;91.20;52.57;;;15.70;99.90;;;;;;4975084;28;20211;-78
2022/03/26 10:05:51;;;;;;;86.30;52.05;;;15.80;99.90;;;;;;4988146;28;20231;-80
2022/03/26 10:08:27;;;;;;;79.53;47.58;;;15.90;99.90;;;;;;4986736;28;20291;-80
2022/03/26 10:10:55;;;;;;;81.20;49.75;;;16.10;99.90;;;;;;4974346;28;20303;-77
2022/03/26 10:13:38;;;;;;;83.57;50.22;;;16.20;99.90;;;;;;4983413;28;20241;-76
2022/03/26 10:16:07;;;;;;;80.80;46.97;;;16.40;99.90;;;;;;4979020;28;20205;-76
2022/03/26 10:18:40;;;;;;;82.88;48.17;;;16.60;99.90;;;;;;4977868;28;20203;-80
2022/03/26 10:21:09;;;;;;;61.35;37.70;;;16.70;99.90;;;;;;4988816;28;20234;-81
2022/03/26 10:23:36;;;;;;;72.72;43.00;;;16.90;99.90;;;;;;4982860;28;20263;-81
2022/03/26 10:26:09;;;;;;;68.05;40.38;;;16.80;99.90;;;;;;4967338;28;20515;-77
2022/03/26 10:28:36;;;;;;;62.28;39.30;;;17.00;99.90;;;;;;4966370;28;20209;-77
2022/03/26 10:34:08;;;;;;;56.28;34.33;;;17.10;99.90;;;;;;4967376;28;20274;-80
2022/03/26 10:36:37;;;;;;;55.55;32.05;;;17.20;99.90;;;;;;4965642;28;20216;-79
2022/03/26 10:39:05;;;;;;;70.75;38.42;;;17.30;99.90;;;;;;4966759;28;20212;-78
2022/03/26 10:41:36;;;;;;;58.33;33.83;;;17.30;99.90;;;;;;4966904;28;20660;-79
2022/03/26 10:44:16;;;;;;;54.55;34.13;;;17.40;99.90;;;;;;4966537;28;20665;-78
2022/03/26 10:46:51;;;;;;;51.17;30.65;;;17.50;99.90;;;;;;4965596;28;20276;-78
2022/03/26 10:49:29;;;;;;;51.55;30.58;;;17.70;99.90;;;;;;4965207;28;20208;-78
2022/03/26 10:51:57;;;;;;;49.38;28.65;;;17.80;99.90;;;;;;4966299;28;20226;-78
2022/03/26 10:54:32;;;;;;;58.80;33.33;;;17.80;99.90;;;;;;4965959;28;20231;-79
2022/03/26 10:57:00;;;;;;;50.45;29.95;;;17.90;99.90;;;;;;4966212;28;20298;-79
2022/03/26 10:59:29;;;;;;;51.90;30.17;;;18.10;99.90;;;;;;4966277;28;20231;-78
2022/03/26 11:01:56;;;;;;;51.83;30.35;;;18.00;99.90;;;;;;4966634;28;20208;-79
2022/03/26 11:04:23;;;;;;;51.25;30.60;;;18.00;99.90;;;;;;4965355;28;20295;-79
2022/03/26 11:06:56;;;;;;;54.40;31.50;;;18.10;99.90;;;;;;4966103;28;20300;-78
2022/03/26 11:09:24;;;;;;;48.25;27.55;;;18.30;99.90;;;;;;4966386;28;20856;-79
2022/03/26 11:11:51;;;;;;;56.20;32.13;;;18.30;99.90;;;;;;4965900;28;20238;-78
2022/03/26 11:14:21;;;;;;;55.67;31.60;;;18.50;99.90;;;;;;4965681;28;20232;-79
2022/03/26 11:17:03;;;;;;;59.40;31.75;;;18.50;99.90;;;;;;4965754;28;20224;-78
2022/03/26 11:19:41;;;;;;;55.03;31.85;;;18.60;99.90;;;;;;4965202;28;20200;-79
2022/03/26 11:22:28;;;;;;;57.42;32.13;;;18.70;99.90;;;;;;4966054;28;20617;-77
2022/03/26 11:25:27;;;;;;;58.78;33.55;;;18.70;99.90;;;;;;4965151;28;20200;-77
2022/03/26 11:28:19;;;;;;;56.13;33.60;;;18.60;99.90;;;;;;4984714;28;20251;-78
2022/03/26 11:30:51;;;;;;;57.67;33.50;;;18.50;99.90;;;;;;4984972;28;20351;-77
2022/03/26 11:33:19;;;;;;;56.58;33.35;;;18.60;99.90;;;;;;4984449;28;20804;-78
2022/03/26 11:35:56;;;;;;;57.70;33.97;;;18.60;99.90;;;;;;4971729;28;20235;-78
2022/03/26 11:38:25;;;;;;;57.30;34.53;;;18.80;99.90;;;;;;4964710;28;20519;-78
2022/03/26 11:40:54;;;;;;;55.47;34.60;;;18.90;99.90;;;;;;4965540;28;20205;-78
2022/03/26 11:43:53;;;;;;;58.53;35.13;;;18.90;99.90;;;;;;4965290;28;20601;-77
2022/03/26 11:52:16;;;;;;;52.90;29.55;;;18.80;99.90;;;;;;4966429;28;20192;-81
2022/03/26 11:54:44;;;;;;;50.92;30.27;;;19.00;99.90;;;;;;4964698;28;20293;-80
2022/03/26 11:57:17;;;;;;;56.88;32.10;;;19.20;99.90;;;;;;4964610;28;20205;-79
2022/03/26 11:59:45;;;;;;;56.58;34.58;;;19.20;99.90;;;;;;4964441;28;20217;-80
2022/03/26 12:02:21;;;;;;;53.53;32.22;;;19.20;99.90;;;;;;4965432;28;20511;-81
2022/03/26 12:04:50;;;;;;;57.85;33.45;;;19.50;99.90;;;;;;4964715;28;20253;-80
2022/03/26 12:07:18;;;;;;;48.90;30.75;;;19.30;99.90;;;;;;4964185;28;20208;-79
2022/03/26 12:09:48;;;;;;;56.47;33.08;;;19.30;99.90;;;;;;4964788;28;20200;-79
2022/03/26 12:12:18;;;;;;;53.50;32.42;;;19.50;99.90;;;;;;4964940;28;20676;-76
2022/03/26 12:15:23;;;;;;;56.83;32.38;;;19.40;99.90;;;;;;4964385;28;20651;-77
2022/03/26 12:17:52;;;;;;;50.53;30.25;;;19.30;99.90;;;;;;4964992;28;20200;-78
2022/03/26 12:20:22;;;;;;;50.55;30.98;;;19.20;99.90;;;;;;4965216;28;20208;-79
2022/03/26 12:22:53;;;;;;;57.55;34.08;;;19.30;99.90;;;;;;4964208;28;20267;-79
2022/03/26 12:25:46;;;;;;;58.95;33.60;;;19.30;99.90;;;;;;4964150;28;20523;-77
2022/03/26 12:28:14;;;;;;;51.90;31.80;;;19.40;99.90;;;;;;4964346;28;20232;-77
2022/03/26 12:30:48;;;;;;;50.28;30.58;;;19.50;99.90;;;;;;4964173;28;20295;-78
2022/03/26 12:33:16;;;;;;;51.58;31.50;;;19.70;99.90;;;;;;4964782;28;20619;-79
2022/03/26 12:35:45;;;;;;;49.58;31.98;;;19.60;99.90;;;;;;4964024;28;20227;-79
2022/03/26 12:38:12;;;;;;;54.00;32.92;;;19.60;99.90;;;;;;4964565;28;20668;-79
2022/03/26 12:40:43;;;;;;;50.13;30.90;;;19.30;99.90;;;;;;4967189;28;20208;-77
2022/03/26 12:43:10;;;;;;;52.83;31.88;;;19.40;99.90;;;;;;4968312;28;20208;-78
2022/03/26 12:45:38;;;;;;;49.00;30.98;;;19.30;99.90;;;;;;4968480;28;20270;-77
2022/03/26 12:48:11;;;;;;;55.05;31.13;;;19.40;99.90;;;;;;4968319;28;20212;-77